createdAt,value
2022-07-29T00:00:56.875Z,95.78
2022-07-29T00:01:56.816Z,95.78
2022-07-29T00:02:57.077Z,95.58
2022-07-29T00:03:57.205Z,95.68
2022-07-29T00:04:56.875Z,95.48
2022-07-29T00:05:56.784Z,95.68
2022-07-29T00:06:56.865Z,95.78
2022-07-29T00:07:56.758Z,95.88
2022-07-29T00:08:56.799Z,95.98
2022-07-29T00:09:56.720Z,96.13
2022-07-29T00:10:56.709Z,95.83
2022-07-29T00:11:56.710Z,95.62
2022-07-29T00:12:56.683Z,95.62
2022-07-29T00:13:56.799Z,95.42
2022-07-29T00:14:56.869Z,95.02
2022-07-29T00:15:56.762Z,95.32
2022-07-29T00:16:56.680Z,95.83
2022-07-29T00:17:56.695Z,95.93
2022-07-29T00:18:59.487Z,95.73
2022-07-29T00:19:56.684Z,95.77
2022-07-29T00:20:56.855Z,96.88
2022-07-29T00:21:56.675Z,96.28
2022-07-29T00:22:56.515Z,96.17
2022-07-29T00:23:56.684Z,96.37
2022-07-29T00:24:56.585Z,96.28
2022-07-29T00:25:56.664Z,96.28
2022-07-29T00:26:56.514Z,96.68
2022-07-29T00:27:56.689Z,96.37
2022-07-29T00:29:30.756Z,96.78
2022-07-29T00:29:56.490Z,96.48
2022-07-29T00:30:56.526Z,96.42
2022-07-29T00:31:56.467Z,96.52
2022-07-29T00:32:56.522Z,96.92
2022-07-29T00:33:56.349Z,97.23
2022-07-29T00:34:56.519Z,97.33
2022-07-29T00:35:56.379Z,97.13
2022-07-29T00:36:56.301Z,97.13
2022-07-29T00:37:56.305Z,97.13
2022-07-29T00:38:56.504Z,97.33
2022-07-29T00:39:56.365Z,97.43
2022-07-29T00:40:56.254Z,97.83
2022-07-29T00:41:56.304Z,97.83
2022-07-29T00:42:56.522Z,98.08
2022-07-29T00:43:56.215Z,98.48
2022-07-29T00:44:56.210Z,98.68
2022-07-29T00:45:56.186Z,98.68
2022-07-29T00:46:56.352Z,98.79
2022-07-29T00:47:56.160Z,98.79
2022-07-29T00:48:56.273Z,98.88
2022-07-29T00:49:56.133Z,98.88
2022-07-29T00:50:56.200Z,98.68
2022-07-29T00:51:56.110Z,98.68
2022-07-29T00:52:56.259Z,99.29
2022-07-29T00:53:56.080Z,99.64
2022-07-29T00:54:56.210Z,99.54
2022-07-29T00:55:56.060Z,99.44
2022-07-29T00:56:56.214Z,99.74
2022-07-29T00:57:56.113Z,99.74
2022-07-29T00:58:56.587Z,99.64
2022-07-29T00:59:56.060Z,99.54
2022-07-29T01:00:56.115Z,99.94
2022-07-29T01:01:56.100Z,99.94
2022-07-29T01:02:56.015Z,99.94
2022-07-29T01:03:56.047Z,99.94
2022-07-29T01:04:55.925Z,99.99
2022-07-29T01:05:56.046Z,99.99
2022-07-29T01:06:55.900Z,99.99
2022-07-29T01:07:56.120Z,99.64
2022-07-29T01:08:55.890Z,99.99
2022-07-29T01:09:55.849Z,99.99
2022-07-29T01:10:55.880Z,99.99
2022-07-29T01:11:56.041Z,99.99
2022-07-29T01:12:55.880Z,99.99
2022-07-29T01:13:56.111Z,99.99
2022-07-29T01:14:55.883Z,99.99
2022-07-29T01:15:56.120Z,99.99
2022-07-29T01:16:55.875Z,99.95
2022-07-29T01:17:55.775Z,99.85
2022-07-29T01:18:55.954Z,99.24
2022-07-29T01:19:55.724Z,98.54
2022-07-29T01:20:55.885Z,98.54
2022-07-29T01:21:55.725Z,98.74
2022-07-29T01:22:55.899Z,98.13
2022-07-29T01:23:55.794Z,98.24
2022-07-29T01:24:55.635Z,98.44
2022-07-29T01:25:56.149Z,98.13
2022-07-29T01:26:55.599Z,98.24
2022-07-29T01:27:55.609Z,98.13
2022-07-29T01:28:55.660Z,98.03
2022-07-29T01:29:55.741Z,98.03
2022-07-29T01:30:55.594Z,98.13
2022-07-29T01:32:00.674Z,98.13
2022-07-29T01:32:55.570Z,98.03
2022-07-29T01:33:55.745Z,97.53
2022-07-29T01:34:55.580Z,97.03
2022-07-29T01:35:55.469Z,97.53
2022-07-29T01:36:55.579Z,98.74
2022-07-29T01:37:55.464Z,98.13
2022-07-29T01:38:55.443Z,97.73
2022-07-29T01:39:55.496Z,97.83
2022-07-29T01:40:55.414Z,97.93
2022-07-29T01:41:55.394Z,98.13
2022-07-29T01:42:55.386Z,98.33
2022-07-29T01:43:55.403Z,97.83
2022-07-29T01:44:55.415Z,97.53
2022-07-29T01:45:55.394Z,97.53
2022-07-29T01:46:55.429Z,97.73
2022-07-29T01:47:55.309Z,97.58
2022-07-29T01:48:55.334Z,97.69
2022-07-29T01:49:55.480Z,97.38
2022-07-29T01:50:55.278Z,97.78
2022-07-29T01:51:55.398Z,97.89
2022-07-29T01:52:55.260Z,97.38
2022-07-29T01:53:55.429Z,97.58
2022-07-29T01:54:55.312Z,97.58
2022-07-29T01:55:55.409Z,97.28
2022-07-29T01:56:55.239Z,97.03
2022-07-29T01:57:55.426Z,96.83
2022-07-29T01:58:55.243Z,97.13
2022-07-29T01:59:55.213Z,97.03
2022-07-29T02:00:55.236Z,97.03
2022-07-29T02:01:55.556Z,96.43
2022-07-29T02:02:55.244Z,96.53
2022-07-29T02:03:55.085Z,96.33
2022-07-29T02:04:55.393Z,96.43
2022-07-29T02:05:55.075Z,96.17
2022-07-29T02:06:55.251Z,96.17
2022-07-29T02:07:55.118Z,96.17
2022-07-29T02:08:55.028Z,96.37
2022-07-29T02:09:55.109Z,96.68
2022-07-29T02:10:55.065Z,96.68
2022-07-29T02:11:55.078Z,97.03
2022-07-29T02:12:54.981Z,97.33
2022-07-29T02:13:54.960Z,97.93
2022-07-29T02:14:54.928Z,97.83
2022-07-29T02:15:55.244Z,97.83
2022-07-29T02:16:54.922Z,98.33
2022-07-29T02:17:54.914Z,98.44
2022-07-29T02:18:54.923Z,98.24
2022-07-29T02:19:55.086Z,98.33
2022-07-29T02:20:55.012Z,98.24
2022-07-29T02:21:54.834Z,98.84
2022-07-29T02:22:54.945Z,98.54
2022-07-29T02:23:54.805Z,97.93
2022-07-29T02:24:54.933Z,97.99
2022-07-29T02:25:54.865Z,97.99
2022-07-29T02:26:54.943Z,97.58
2022-07-29T02:27:54.758Z,97.69
2022-07-29T02:28:54.944Z,97.69
2022-07-29T02:29:54.796Z,97.08
2022-07-29T02:30:54.983Z,96.88
2022-07-29T02:31:54.868Z,95.97
2022-07-29T02:32:54.695Z,96.28
2022-07-29T02:33:54.758Z,95.77
2022-07-29T02:34:54.678Z,95.67
2022-07-29T02:35:54.755Z,95.83
2022-07-29T02:36:54.638Z,94.72
2022-07-29T02:37:54.855Z,94.12
2022-07-29T02:38:54.622Z,94.21
2022-07-29T02:39:54.634Z,93.97
2022-07-29T02:40:54.593Z,93.97
2022-07-29T02:41:54.563Z,93.27
2022-07-29T02:42:54.623Z,93.16
2022-07-29T02:43:54.543Z,93.37
2022-07-29T02:44:54.515Z,93.52
2022-07-29T02:45:54.503Z,93.66
2022-07-29T02:46:54.658Z,94.07
2022-07-29T02:47:54.572Z,93.97
2022-07-29T02:48:54.549Z,93.97
2022-07-29T02:49:54.460Z,93.66
2022-07-29T02:50:54.439Z,93.57
2022-07-29T02:51:54.427Z,94.12
2022-07-29T02:52:56.523Z,94.01
2022-07-29T02:53:54.473Z,94.32
2022-07-29T02:54:54.388Z,94.32
2022-07-29T02:55:54.459Z,93.91
2022-07-29T02:56:54.370Z,93.81
2022-07-29T02:57:55.757Z,93.81
2022-07-29T02:58:54.623Z,94.07
2022-07-29T02:59:54.496Z,93.37
2022-07-29T03:00:54.338Z,93.97
2022-07-29T03:01:54.592Z,94.57
2022-07-29T03:02:54.386Z,94.42
2022-07-29T03:03:54.458Z,94.12
2022-07-29T03:04:54.351Z,94.52
2022-07-29T03:05:54.245Z,94.82
2022-07-29T03:06:54.303Z,94.82
2022-07-29T03:07:54.320Z,94.82
2022-07-29T03:08:54.298Z,95.32
2022-07-29T03:09:54.468Z,95.02
2022-07-29T03:10:54.347Z,94.62
2022-07-29T03:11:54.178Z,94.82
2022-07-29T03:12:54.149Z,95.12
2022-07-29T03:13:54.218Z,95.22
2022-07-29T03:14:54.319Z,95.83
2022-07-29T03:15:54.174Z,95.32
2022-07-29T03:16:54.310Z,95.12
2022-07-29T03:17:54.154Z,95.22
2022-07-29T03:18:54.173Z,95.42
2022-07-29T03:19:54.155Z,95.42
2022-07-29T03:20:54.317Z,95.32
2022-07-29T03:21:54.144Z,95.97
2022-07-29T03:22:54.039Z,95.97
2022-07-29T03:23:54.145Z,96.08
2022-07-29T03:24:54.053Z,96.37
2022-07-29T03:25:53.943Z,96.68
2022-07-29T03:26:53.975Z,96.78
2022-07-29T03:27:54.158Z,96.58
2022-07-29T03:28:53.988Z,96.48
2022-07-29T03:29:54.230Z,96.22
2022-07-29T03:30:54.050Z,96.22
2022-07-29T03:31:54.138Z,96.22
2022-07-29T03:32:53.977Z,96.32
2022-07-29T03:33:53.861Z,96.42
2022-07-29T03:34:53.888Z,96.32
2022-07-29T03:35:53.843Z,96.01
2022-07-29T03:36:53.789Z,96.01
2022-07-29T03:37:53.803Z,96.12
2022-07-29T03:38:54.004Z,96.01
2022-07-29T03:39:53.904Z,96.62
2022-07-29T03:40:54.002Z,97.03
2022-07-29T03:41:53.747Z,97.03
2022-07-29T03:42:53.722Z,96.83
2022-07-29T03:43:53.693Z,96.62
2022-07-29T03:44:53.795Z,96.72
2022-07-29T03:45:53.739Z,97.23
2022-07-29T03:46:53.673Z,97.43
2022-07-29T03:47:58.457Z,97.53
2022-07-29T03:48:53.728Z,97.03
2022-07-29T03:49:53.628Z,97.03
2022-07-29T03:50:53.754Z,97.13
2022-07-29T03:51:53.600Z,97.23
2022-07-29T03:52:53.665Z,97.33
2022-07-29T03:53:53.559Z,97.63
2022-07-29T03:54:53.669Z,97.53
2022-07-29T03:55:53.538Z,97.33
2022-07-29T03:56:53.770Z,96.83
2022-07-29T03:57:53.493Z,96.68
2022-07-29T03:58:53.514Z,96.58
2022-07-29T03:59:53.513Z,96.17
2022-07-29T04:00:53.663Z,96.58
2022-07-29T04:01:53.644Z,96.28
2022-07-29T04:02:53.653Z,96.08
2022-07-29T04:03:53.576Z,96.23
2022-07-29T04:04:53.404Z,95.83
2022-07-29T04:05:53.484Z,95.62
2022-07-29T04:06:53.473Z,96.03
2022-07-29T04:07:53.496Z,95.93
2022-07-29T04:08:53.368Z,96.53
2022-07-29T04:09:53.506Z,95.93
2022-07-29T04:10:53.353Z,95.62
2022-07-29T04:12:02.350Z,95.83
2022-07-29T04:12:53.338Z,95.88
2022-07-29T04:13:53.499Z,96.08
2022-07-29T04:14:53.338Z,95.98
2022-07-29T04:15:53.315Z,95.68
2022-07-29T04:16:53.336Z,97.09
2022-07-29T04:17:53.289Z,96.89
2022-07-29T04:18:53.343Z,96.08
2022-07-29T04:19:53.523Z,95.68
2022-07-29T04:20:53.344Z,95.28
2022-07-29T04:21:53.192Z,95.68
2022-07-29T04:22:53.454Z,95.58
2022-07-29T04:23:53.814Z,95.07
2022-07-29T04:24:53.353Z,95.88
2022-07-29T04:25:53.163Z,95.18
2022-07-29T04:26:53.342Z,95.28
2022-07-29T04:27:53.184Z,95.28
2022-07-29T04:28:53.168Z,94.98
2022-07-29T04:29:56.383Z,94.67
2022-07-29T04:30:53.409Z,94.57
2022-07-29T04:31:53.197Z,94.67
2022-07-29T04:32:53.016Z,94.78
2022-07-29T04:33:53.259Z,94.83
2022-07-29T04:34:52.988Z,94.63
2022-07-29T04:35:55.620Z,94.93
2022-07-29T04:36:52.958Z,95.13
2022-07-29T04:37:53.181Z,95.64
2022-07-29T04:38:53.032Z,95.64
2022-07-29T04:39:53.002Z,95.64
2022-07-29T04:40:53.033Z,95.43
2022-07-29T04:41:54.977Z,95.53
2022-07-29T04:42:53.040Z,95.13
2022-07-29T04:43:52.893Z,94.53
2022-07-29T04:44:52.934Z,94.79
2022-07-29T04:45:52.893Z,94.59
2022-07-29T04:46:52.835Z,95.29
2022-07-29T04:47:52.863Z,94.98
2022-07-29T04:48:52.883Z,95.64
2022-07-29T04:49:52.887Z,95.64
2022-07-29T04:50:53.028Z,94.54
2022-07-29T04:51:52.868Z,94.44
2022-07-29T04:52:52.758Z,94.49
2022-07-29T04:53:52.868Z,93.79
2022-07-29T04:54:52.729Z,93.09
2022-07-29T04:55:52.939Z,91.99
2022-07-29T04:56:52.699Z,91.74
2022-07-29T04:57:52.687Z,91.68
2022-07-29T04:58:52.728Z,91.58
2022-07-29T04:59:52.872Z,91.99
2022-07-29T05:00:52.713Z,91.48
2022-07-29T05:01:52.793Z,91.18
2022-07-29T05:02:52.795Z,90.94
2022-07-29T05:03:55.926Z,92.14
2022-07-29T05:04:52.703Z,90.84
2022-07-29T05:05:52.583Z,91.24
2022-07-29T05:06:52.763Z,91.03
2022-07-29T05:07:52.544Z,90.37
2022-07-29T05:08:52.708Z,91.08
2022-07-29T05:09:52.548Z,91.38
2022-07-29T05:10:52.697Z,91.28
2022-07-29T05:11:52.618Z,91.68
2022-07-29T05:12:52.708Z,91.78
2022-07-29T05:13:52.538Z,91.48
2022-07-29T05:14:52.698Z,91.72
2022-07-29T05:15:52.519Z,91.93
2022-07-29T05:16:52.455Z,92.33
2022-07-29T05:17:52.597Z,92.13
2022-07-29T05:18:52.426Z,92.23
2022-07-29T05:19:52.542Z,92.33
2022-07-29T05:20:52.384Z,92.43
2022-07-29T05:21:52.663Z,92.33
2022-07-29T05:22:52.384Z,92.43
2022-07-29T05:23:52.343Z,92.43
2022-07-29T05:24:52.373Z,92.63
2022-07-29T05:25:52.562Z,92.53
2022-07-29T05:26:52.464Z,92.63
2022-07-29T05:27:52.283Z,92.93
2022-07-29T05:28:52.398Z,92.53
2022-07-29T05:29:52.288Z,92.73
2022-07-29T05:30:52.439Z,92.38
2022-07-29T05:31:52.299Z,92.38
2022-07-29T05:32:52.208Z,92.38
2022-07-29T05:33:52.217Z,91.99
2022-07-29T05:34:52.377Z,92.38
2022-07-29T05:35:52.218Z,91.68
2022-07-29T05:36:52.441Z,91.48
2022-07-29T05:37:52.217Z,91.88
2022-07-29T05:38:52.148Z,91.68
2022-07-29T05:39:56.648Z,91.88
2022-07-29T05:40:52.105Z,91.48
2022-07-29T05:41:52.312Z,90.78
2022-07-29T05:42:52.083Z,91.18
2022-07-29T05:43:52.224Z,91.14
2022-07-29T05:44:52.036Z,91.28
2022-07-29T05:45:52.076Z,91.03
2022-07-29T05:46:52.093Z,91.14
2022-07-29T05:47:52.005Z,91.18
2022-07-29T05:48:52.058Z,90.84
2022-07-29T05:49:52.230Z,90.37
2022-07-29T05:50:52.059Z,90.03
2022-07-29T05:51:51.962Z,90.13
2022-07-29T05:52:52.065Z,90.03
2022-07-29T05:53:51.927Z,90.23
2022-07-29T05:54:51.910Z,90.23
2022-07-29T05:55:51.890Z,89.83
2022-07-29T05:56:51.938Z,89.49
2022-07-29T05:57:51.877Z,89.59
2022-07-29T05:58:51.887Z,90.39
2022-07-29T05:59:51.872Z,88.89
2022-07-29T06:00:51.848Z,89.79
2022-07-29T06:01:52.072Z,90.29
2022-07-29T06:02:52.075Z,88.79
2022-07-29T06:03:51.785Z,88.75
2022-07-29T06:04:51.879Z,88.44
2022-07-29T06:05:51.883Z,88.24
2022-07-29T06:06:51.743Z,88.95
2022-07-29T06:07:51.800Z,88.64
2022-07-29T06:08:51.778Z,88.34
2022-07-29T06:09:51.907Z,88.75
2022-07-29T06:10:51.757Z,89.61
2022-07-29T06:11:51.966Z,89.40
2022-07-29T06:12:51.738Z,89.30
2022-07-29T06:13:51.898Z,88.90
2022-07-29T06:14:54.230Z,89.30
2022-07-29T06:15:51.713Z,89.30
2022-07-29T06:16:51.939Z,88.20
2022-07-29T06:18:00.206Z,87.40
2022-07-29T06:18:51.620Z,87.10
2022-07-29T06:19:51.604Z,87.30
2022-07-29T06:20:51.753Z,88.10
2022-07-29T06:21:51.663Z,87.70
2022-07-29T06:22:51.755Z,87.66
2022-07-29T06:23:51.602Z,87.55
2022-07-29T06:24:51.506Z,86.66
2022-07-29T06:25:51.603Z,87.05
2022-07-29T06:26:51.563Z,87.66
2022-07-29T06:27:51.603Z,87.55
2022-07-29T06:28:51.743Z,87.26
2022-07-29T06:29:51.597Z,87.36
2022-07-29T06:30:51.482Z,86.35
2022-07-29T06:31:51.592Z,86.96
2022-07-29T06:32:51.498Z,87.05
2022-07-29T06:33:51.378Z,86.55
2022-07-29T06:34:51.418Z,86.01
2022-07-29T06:35:55.189Z,86.32
2022-07-29T06:36:51.411Z,86.71
2022-07-29T06:37:51.438Z,86.61
2022-07-29T06:38:52.114Z,87.02
2022-07-29T06:39:51.313Z,86.41
2022-07-29T06:40:51.425Z,86.82
2022-07-29T06:41:51.294Z,86.71
2022-07-29T06:42:51.413Z,86.18
2022-07-29T06:43:54.596Z,85.68
2022-07-29T06:44:51.403Z,83.87
2022-07-29T06:45:51.305Z,84.57
2022-07-29T06:46:51.403Z,84.07
2022-07-29T06:47:51.179Z,85.37
2022-07-29T06:48:51.649Z,84.63
2022-07-29T06:49:51.188Z,84.83
2022-07-29T06:50:51.417Z,84.43
2022-07-29T06:51:51.126Z,84.83
2022-07-29T06:52:51.119Z,83.13
2022-07-29T06:54:00.094Z,83.23
2022-07-29T06:54:51.178Z,82.63
2022-07-29T06:55:51.067Z,82.13
2022-07-29T06:56:51.097Z,83.33
2022-07-29T06:57:51.319Z,84.03
2022-07-29T06:58:51.112Z,83.83
2022-07-29T06:59:51.352Z,84.73
2022-07-29T07:00:51.156Z,83.63
2022-07-29T07:01:51.051Z,83.89
2022-07-29T07:02:51.055Z,83.79
2022-07-29T07:03:50.986Z,83.33
2022-07-29T07:04:51.054Z,82.63
2022-07-29T07:05:50.941Z,83.49
2022-07-29T07:06:50.946Z,82.39
2022-07-29T07:07:50.922Z,82.19
2022-07-29T07:08:51.107Z,80.95
2022-07-29T07:09:50.936Z,81.05
2022-07-29T07:10:51.186Z,81.15
2022-07-29T07:11:50.927Z,81.35
2022-07-29T07:12:51.097Z,81.45
2022-07-29T07:13:50.936Z,81.65
2022-07-29T07:14:50.840Z,80.95
2022-07-29T07:15:51.017Z,80.76
2022-07-29T07:16:52.636Z,80.32
2022-07-29T07:17:50.947Z,80.02
2022-07-29T07:18:50.781Z,80.32
2022-07-29T07:19:50.783Z,80.32
2022-07-29T07:20:50.783Z,80.41
2022-07-29T07:21:51.019Z,80.58
2022-07-29T07:22:50.772Z,78.48
2022-07-29T07:23:50.922Z,78.74
2022-07-29T07:24:50.772Z,79.74
2022-07-29T07:25:50.733Z,78.80
2022-07-29T07:26:50.792Z,78.20
2022-07-29T07:27:50.677Z,77.03
2022-07-29T07:28:50.788Z,75.50
2022-07-29T07:29:50.647Z,74.04
2022-07-29T07:30:50.887Z,70.78
2022-07-29T07:31:50.657Z,68.20
2022-07-29T07:32:50.780Z,67.05
2022-07-29T07:33:50.617Z,68.27
2022-07-29T07:34:50.847Z,69.16
2022-07-29T07:35:50.696Z,69.32
2022-07-29T07:36:50.785Z,66.65
2022-07-29T07:37:50.633Z,64.38
2022-07-29T07:38:50.523Z,64.90
2022-07-29T07:39:50.623Z,65.00
2022-07-29T07:40:50.568Z,63.59
2022-07-29T07:41:50.632Z,62.33
2022-07-29T07:42:50.440Z,57.77
2022-07-29T07:43:50.621Z,58.26
2022-07-29T07:45:12.092Z,58.71
2022-07-29T07:45:50.842Z,60.81
2022-07-29T07:46:50.413Z,60.90
2022-07-29T07:47:50.719Z,61.55
2022-07-29T07:48:50.437Z,63.06
2022-07-29T07:49:50.367Z,61.80
2022-07-29T07:50:50.426Z,59.66
2022-07-29T07:51:51.197Z,56.43
2022-07-29T07:52:50.317Z,57.08
2022-07-29T07:53:50.299Z,57.10
2022-07-29T07:54:50.302Z,56.58
2022-07-29T07:56:09.793Z,56.43
2022-07-29T07:56:50.869Z,60.03
2022-07-29T07:57:50.311Z,58.22
2022-07-29T07:58:50.252Z,59.70
2022-07-29T07:59:50.301Z,60.41
2022-07-29T08:00:50.318Z,60.12
2022-07-29T08:01:55.554Z,58.94
2022-07-29T08:02:50.223Z,58.98
2022-07-29T08:03:50.232Z,59.27
2022-07-29T08:04:50.141Z,59.72
2022-07-29T08:05:50.258Z,62.52
2022-07-29T08:06:50.138Z,62.25
2022-07-29T08:07:50.213Z,62.12
2022-07-29T08:08:50.138Z,61.65
2022-07-29T08:09:50.098Z,62.90
2022-07-29T08:10:50.265Z,64.21
2022-07-29T08:11:52.232Z,64.74
2022-07-29T08:12:50.147Z,66.39
2022-07-29T08:13:50.028Z,66.85
2022-07-29T08:14:50.042Z,67.05
2022-07-29T08:15:50.142Z,68.96
2022-07-29T08:16:50.250Z,68.86
2022-07-29T08:17:50.083Z,69.46
2022-07-29T08:18:49.993Z,71.18
2022-07-29T08:19:49.971Z,69.89
2022-07-29T08:20:50.225Z,69.29
2022-07-29T08:21:50.410Z,71.01
2022-07-29T08:22:49.922Z,68.66
2022-07-29T08:23:55.867Z,71.71
2022-07-29T08:24:50.146Z,69.13
2022-07-29T08:25:50.529Z,69.32
2022-07-29T08:26:50.136Z,70.78
2022-07-29T08:27:50.012Z,69.26
2022-07-29T08:28:49.838Z,68.86
2022-07-29T08:29:49.965Z,68.57
2022-07-29T08:30:49.897Z,68.53
2022-07-29T08:31:50.250Z,67.61
2022-07-29T08:32:54.446Z,65.86
2022-07-29T08:33:49.993Z,63.48
2022-07-29T08:34:49.823Z,65.06
2022-07-29T08:35:50.082Z,63.85
2022-07-29T08:36:50.801Z,63.32
2022-07-29T08:37:49.846Z,62.90
2022-07-29T08:38:49.822Z,62.66
2022-07-29T08:39:49.695Z,62.27
2022-07-29T08:40:49.906Z,60.66
2022-07-29T08:41:57.330Z,59.32
2022-07-29T08:42:49.838Z,58.80
2022-07-29T08:43:49.673Z,59.09
2022-07-29T08:44:49.909Z,60.90
2022-07-29T08:45:49.813Z,60.21
2022-07-29T08:46:49.827Z,59.98
2022-07-29T08:47:49.640Z,59.29
2022-07-29T08:48:49.645Z,59.19
2022-07-29T08:49:49.726Z,60.38
2022-07-29T08:50:49.558Z,58.47
2022-07-29T08:51:49.795Z,58.94
2022-07-29T08:52:49.831Z,56.35
2022-07-29T08:53:49.521Z,58.02
2022-07-29T08:54:49.596Z,57.70
2022-07-29T08:55:49.673Z,57.50
2022-07-29T08:56:49.472Z,55.77
2022-07-29T08:57:54.198Z,54.75
2022-07-29T08:58:51.691Z,49.33
2022-07-29T08:59:49.492Z,50.12
2022-07-29T09:00:49.524Z,50.85
2022-07-29T09:01:49.507Z,47.97
2022-07-29T09:02:49.399Z,49.48
2022-07-29T09:03:49.448Z,51.81
2022-07-29T09:04:49.588Z,51.15
2022-07-29T09:05:49.351Z,51.64
2022-07-29T09:06:49.337Z,52.47
2022-07-29T09:07:49.337Z,53.35
2022-07-29T09:08:49.307Z,51.46
2022-07-29T09:09:49.423Z,47.09
2022-07-29T09:10:49.315Z,46.04
2022-07-29T09:11:49.353Z,47.08
2022-07-29T09:12:49.283Z,46.76
2022-07-29T09:13:49.334Z,47.67
2022-07-29T09:14:49.324Z,47.13
2022-07-29T09:15:49.342Z,49.41
2022-07-29T09:16:53.861Z,52.01
2022-07-29T09:17:49.347Z,51.32
2022-07-29T09:18:49.257Z,52.01
2022-07-29T09:19:49.248Z,54.30
2022-07-29T09:20:49.177Z,55.77
2022-07-29T09:21:49.341Z,52.16
2022-07-29T09:22:49.180Z,52.97
2022-07-29T09:23:49.339Z,55.26
2022-07-29T09:24:49.258Z,54.70
2022-07-29T09:25:49.338Z,55.46
2022-07-29T09:26:49.192Z,56.25
2022-07-29T09:27:49.093Z,56.57
2022-07-29T09:28:49.194Z,57.46
2022-07-29T09:29:49.152Z,55.58
2022-07-29T09:30:49.012Z,57.54
2022-07-29T09:31:49.193Z,57.15
2022-07-29T09:32:49.163Z,56.46
2022-07-29T09:33:49.021Z,56.31
2022-07-29T09:34:48.983Z,56.81
2022-07-29T09:35:56.975Z,58.39
2022-07-29T09:36:48.968Z,57.37
2022-07-29T09:37:49.023Z,57.20
2022-07-29T09:38:49.189Z,58.49
2022-07-29T09:39:49.029Z,58.51
2022-07-29T09:40:48.900Z,59.58
2022-07-29T09:41:49.117Z,57.10
2022-07-29T09:42:48.859Z,56.91
2022-07-29T09:43:49.038Z,58.49
2022-07-29T09:44:48.873Z,59.15
2022-07-29T09:45:48.842Z,57.93
2022-07-29T09:46:48.990Z,57.84
2022-07-29T09:47:49.023Z,58.14
2022-07-29T09:48:48.927Z,58.40
2022-07-29T09:49:49.043Z,57.78
2022-07-29T09:50:48.867Z,56.90
2022-07-29T09:51:49.082Z,56.85
2022-07-29T09:52:48.862Z,57.24
2022-07-29T09:53:48.738Z,58.14
2022-07-29T09:54:48.866Z,59.61
2022-07-29T09:55:48.711Z,58.92
2022-07-29T09:56:48.769Z,57.37
2022-07-29T09:57:48.699Z,57.62
2022-07-29T09:58:48.861Z,58.94
2022-07-29T09:59:50.236Z,61.61
2022-07-29T10:00:48.947Z,60.49
2022-07-29T10:01:48.710Z,60.99
2022-07-29T10:02:48.687Z,59.01
2022-07-29T10:03:48.753Z,58.81
2022-07-29T10:04:48.563Z,59.47
2022-07-29T10:05:48.564Z,58.78
2022-07-29T10:06:48.543Z,59.05
2022-07-29T10:07:53.482Z,58.75
2022-07-29T10:08:48.522Z,57.84
2022-07-29T10:09:48.523Z,57.34
2022-07-29T10:10:48.548Z,58.16
2022-07-29T10:11:49.887Z,57.07
2022-07-29T10:12:48.548Z,58.89
2022-07-29T10:13:48.517Z,58.97
2022-07-29T10:14:48.429Z,59.56
2022-07-29T10:15:48.450Z,56.26
2022-07-29T10:16:48.427Z,57.47
2022-07-29T10:17:48.429Z,59.09
2022-07-29T10:18:48.371Z,56.33
2022-07-29T10:19:48.463Z,57.24
2022-07-29T10:20:48.383Z,59.02
2022-07-29T10:21:48.393Z,58.95
2022-07-29T10:22:53.441Z,57.67
2022-07-29T10:23:48.374Z,58.16
2022-07-29T10:24:48.363Z,58.59
2022-07-29T10:25:48.388Z,59.18
2022-07-29T10:26:48.281Z,59.47
2022-07-29T10:27:48.383Z,60.04
2022-07-29T10:28:48.538Z,58.56
2022-07-29T10:29:48.320Z,58.83
2022-07-29T10:30:48.250Z,58.14
2022-07-29T10:31:48.323Z,58.92
2022-07-29T10:32:51.234Z,58.80
2022-07-29T10:33:48.179Z,56.99
2022-07-29T10:34:48.224Z,59.03
2022-07-29T10:35:48.458Z,57.33
2022-07-29T10:36:48.237Z,54.72
2022-07-29T10:37:48.142Z,53.83
2022-07-29T10:38:48.318Z,55.26
2022-07-29T10:39:49.687Z,50.90
2022-07-29T10:40:48.222Z,52.60
2022-07-29T10:41:48.113Z,51.69
2022-07-29T10:42:48.222Z,52.15
2022-07-29T10:43:48.032Z,49.19
2022-07-29T10:44:48.083Z,47.99
2022-07-29T10:45:48.043Z,49.29
2022-07-29T10:46:48.316Z,48.11
2022-07-29T10:47:48.068Z,49.65
2022-07-29T10:48:48.283Z,48.26
2022-07-29T10:49:48.059Z,50.09
2022-07-29T10:50:48.298Z,48.92
2022-07-29T10:51:48.061Z,50.29
2022-07-29T10:52:47.968Z,48.72
2022-07-29T10:53:48.047Z,49.24
2022-07-29T10:54:47.978Z,47.87
2022-07-29T10:55:48.062Z,49.14
2022-07-29T10:56:47.902Z,51.07
2022-07-29T10:57:54.210Z,51.35
2022-07-29T10:58:52.749Z,52.58
2022-07-29T10:59:47.922Z,51.57
2022-07-29T11:00:47.939Z,51.22
2022-07-29T11:01:51.303Z,53.14
2022-07-29T11:02:48.324Z,52.53
2022-07-29T11:03:49.686Z,52.43
2022-07-29T11:04:48.633Z,53.02
2022-07-29T11:05:48.058Z,52.75
2022-07-29T11:06:47.888Z,53.07
2022-07-29T11:07:47.747Z,53.96
2022-07-29T11:08:47.717Z,53.54
2022-07-29T11:09:47.718Z,54.79
2022-07-29T11:10:47.768Z,52.70
2022-07-29T11:11:58.409Z,53.21
2022-07-29T11:12:47.705Z,50.32
2022-07-29T11:13:48.806Z,49.29
2022-07-29T11:14:47.673Z,46.72
2022-07-29T11:15:47.723Z,49.41
2022-07-29T11:16:47.654Z,50.29
2022-07-29T11:17:52.282Z,49.92
2022-07-29T11:18:47.623Z,49.99
2022-07-29T11:19:52.240Z,51.25
2022-07-29T11:20:47.756Z,50.59
2022-07-29T11:21:54.889Z,50.93
2022-07-29T11:22:47.596Z,50.90
2022-07-29T11:23:47.557Z,51.67
2022-07-29T11:24:50.043Z,51.67
2022-07-29T11:25:51.013Z,50.09
2022-07-29T11:26:47.578Z,52.87
2022-07-29T11:27:47.479Z,50.12
2022-07-29T11:28:47.578Z,51.10
2022-07-29T11:29:47.459Z,52.70
2022-07-29T11:30:47.581Z,52.36
2022-07-29T11:31:47.802Z,52.63
2022-07-29T11:32:48.655Z,54.23
2022-07-29T11:33:55.749Z,54.99
2022-07-29T11:34:47.584Z,53.39
2022-07-29T11:35:53.715Z,54.55
2022-07-29T11:36:47.642Z,51.62
2022-07-29T11:37:55.835Z,55.24
2022-07-29T11:38:47.562Z,52.78
2022-07-29T11:39:47.428Z,52.68
2022-07-29T11:40:47.587Z,51.59
2022-07-29T11:41:47.500Z,53.88
2022-07-29T11:42:47.298Z,51.79
2022-07-29T11:43:47.417Z,51.76
2022-07-29T11:44:47.308Z,50.39
2022-07-29T11:45:47.276Z,52.40
2022-07-29T11:46:47.339Z,50.56
2022-07-29T11:47:47.476Z,53.29
2022-07-29T11:48:47.351Z,50.24
2022-07-29T11:49:47.432Z,50.12
2022-07-29T11:50:48.351Z,50.09
2022-07-29T11:51:48.248Z,49.65
2022-07-29T11:52:49.529Z,50.59
2022-07-29T11:53:47.163Z,50.95
2022-07-29T11:54:58.235Z,49.28
2022-07-29T11:55:51.647Z,53.81
2022-07-29T11:56:47.342Z,53.02
2022-07-29T11:57:47.188Z,52.16
2022-07-29T11:58:47.117Z,52.38
2022-07-29T11:59:47.097Z,52.36
2022-07-29T12:00:47.283Z,53.27
2022-07-29T12:01:47.107Z,54.36
2022-07-29T12:02:48.774Z,54.43
2022-07-29T12:03:47.088Z,54.01
2022-07-29T12:04:47.269Z,52.01
2022-07-29T12:05:48.247Z,53.99
2022-07-29T12:07:47.252Z,52.19
2022-07-29T12:08:47.451Z,51.79
2022-07-29T12:09:47.102Z,52.55
2022-07-29T12:10:46.950Z,52.26
2022-07-29T12:11:47.506Z,51.97
2022-07-29T12:12:47.031Z,53.17
2022-07-29T12:13:46.903Z,53.96
2022-07-29T12:14:46.943Z,54.16
2022-07-29T12:15:47.479Z,54.45
2022-07-29T12:16:46.897Z,52.97
2022-07-29T12:17:46.928Z,52.70
2022-07-29T12:18:46.838Z,55.14
2022-07-29T12:19:46.810Z,56.22
2022-07-29T12:20:46.808Z,53.88
2022-07-29T12:21:59.406Z,55.56
2022-07-29T12:22:47.019Z,52.53
2022-07-29T12:23:46.778Z,53.84
2022-07-29T12:24:46.773Z,54.13
2022-07-29T12:25:49.671Z,55.44
2022-07-29T12:26:46.732Z,55.81
2022-07-29T12:27:46.773Z,54.26
2022-07-29T12:28:47.096Z,53.89
2022-07-29T12:29:48.043Z,55.18
2022-07-29T12:30:46.682Z,54.78
2022-07-29T12:31:46.718Z,56.56
2022-07-29T12:32:46.643Z,55.35
2022-07-29T12:33:46.707Z,54.65
2022-07-29T12:34:46.617Z,54.48
2022-07-29T12:35:54.073Z,54.97
2022-07-29T12:36:46.618Z,54.58
2022-07-29T12:37:46.848Z,58.86
2022-07-29T12:38:46.621Z,55.69
2022-07-29T12:39:46.778Z,55.30
2022-07-29T12:40:46.618Z,56.98
2022-07-29T12:41:46.518Z,56.85
2022-07-29T12:42:46.684Z,57.15
2022-07-29T12:43:46.503Z,56.56
2022-07-29T12:44:46.616Z,55.54
2022-07-29T12:45:46.493Z,56.43
2022-07-29T12:46:46.675Z,57.02
2022-07-29T12:47:46.543Z,57.02
2022-07-29T12:48:46.665Z,55.35
2022-07-29T12:49:46.442Z,55.74
2022-07-29T12:50:46.624Z,56.23
2022-07-29T12:51:46.399Z,56.63
2022-07-29T12:52:46.400Z,55.66
2022-07-29T12:53:46.548Z,56.85